Observations for Trim Market St
| Time | AQI | Temp °C | Hum % | Pres Pa | CO μg/m³ | H₂S μg/m³ | NO μg/m³ | NO₂ μg/m³ | O₃ μg/m³ | SO₂ μg/m³ | PM1 μg/m³ | PM2.5 μg/m³ | PM10 μg/m³ |
|---|---|---|---|---|---|---|---|---|---|---|---|---|---|
| Wednesday 12 August 2026 | |||||||||||||
| 23:10 | 3 | 24.3 | 53 | 56,154 | 0 | 0 | 0.97 | 18.02 | 66.58 | 0 | 2.14 | 4.37 | 5.34 |
| 23:09 | 3 | 24.4 | 53 | 56,149 | 0 | 0 | 0.94 | 15.17 | 69.36 | 0 | 1.43 | 5.39 | 6.8 |
| 23:08 | 3 | 24.3 | 53 | 56,194 | 0 | 0 | 0.94 | 14.03 | 69.71 | 0 | 2.14 | 4.38 | 6.07 |
| 23:07 | 3 | 24.4 | 53 | 56,210 | 0 | 0 | 0.92 | 16.22 | 73.12 | 0 | 2.14 | 4.37 | 7.53 |
| 23:06 | 3 | 24.4 | 53 | 56,203 | 0 | 0 | 0.92 | 14.5 | 66.92 | 0 | 1.43 | 2.84 | 3.88 |
| 23:05 | 3 | 24.4 | 53 | 56,200 | 0 | 0 | 0.92 | 15.19 | 74.79 | 0 | 2.14 | 4.38 | 5.34 |
| 23:04 | 3 | 24.4 | 53 | 56,185 | 0 | 0 | 0.92 | 14.31 | 67.93 | 0 | 1.43 | 4.89 | 7.53 |
| 23:03 | 3 | 24.4 | 53 | 56,175 | 0 | 0 | 0.92 | 20.11 | 66.9 | 0 | 2.14 | 4.89 | 7.53 |
| 23:02 | 3 | 24.5 | 53 | 56,136 | 0 | 0 | 0.9 | 13.39 | 77.09 | 0 | 3.56 | 4.9 | 6.07 |
| 22:58 | 3 | 24.6 | 52 | 56,118 | 0 | 0 | 0.91 | 16.74 | 68.86 | 0 | 2.14 | 4.39 | 5.33 |
| 22:57 | 3 | 24.6 | 52 | 56,099 | 0 | 0 | 0.91 | 14.79 | 73.59 | 0 | 2.85 | 4.91 | 6.06 |
| 22:56 | 3 | 24.6 | 52 | 56,095 | 0 | 0 | 0.91 | 15.58 | 69.95 | 0 | 2.85 | 4.91 | 6.06 |
| 22:54 | 3 | 24.6 | 52 | 56,045 | 0 | 0 | 0.92 | 16.56 | 72.86 | 0 | 1.43 | 4.4 | 5.33 |
| 22:44 | 3 | 24.8 | 52 | 55,999 | 0 | 0 | 0.88 | 21.22 | 63.88 | 0 | 2.14 | 3.91 | 4.59 |
| 22:43 | 3 | 24.8 | 52 | 55,949 | 0 | 0 | 0.89 | 18.74 | 66.84 | 0 | 0.71 | 2.89 | 3.12 |
| 22:42 | 3 | 24.8 | 52 | 55,952 | 0 | 0 | 0.89 | 19.82 | 71.13 | 0 | 1.43 | 3.92 | 6.79 |
| 22:40 | 3 | 24.9 | 52 | 55,910 | 0 | 0 | 0.89 | 16.39 | 67.35 | 0 | 2.14 | 4.94 | 6.06 |
| 22:39 | 3 | 24.9 | 52 | 55,931 | 0 | 0 | 0.89 | 17.06 | 65.71 | 0 | 2.85 | 5.96 | 7.53 |
| 22:38 | 3 | 24.9 | 52 | 55,943 | 0 | 0 | 0.88 | 14.87 | 73.61 | 0 | 2.85 | 4.43 | 5.32 |
| 22:37 | 3 | 24.9 | 52 | 55,948 | 0 | 0 | 0.89 | 26.78 | 57.38 | 0 | 2.14 | 4.43 | 6.06 |